sensor_id;sensor_type;location;lat;lon;timestamp;P1;P2;P0
73973;PMS5003;62336;-26.094;27.994;2023-04-09T00:01:22;30;29;
73973;PMS5003;62336;-26.094;27.994;2023-04-09T00:03:47;33;32;
73973;PMS5003;62336;-26.094;27.994;2023-04-09T00:06:13;36;33;
73973;PMS5003;62336;-26.094;27.994;2023-04-09T00:08:38;29;29;
73973;PMS5003;62336;-26.094;27.994;2023-04-09T00:11:04;29;29;
73973;PMS5003;62336;-26.094;27.994;2023-04-09T00:13:29;31;31;
73973;PMS5003;62336;-26.094;27.994;2023-04-09T00:15:54;30;29;
73973;PMS5003;62336;-26.094;27.994;2023-04-09T00:18:19;30;29;
73973;PMS5003;62336;-26.094;27.994;2023-04-09T00:20:45;31;30;
73973;PMS5003;62336;-26.094;27.994;2023-04-09T00:23:11;32;28;
73973;PMS5003;62336;-26.094;27.994;2023-04-09T00:25:36;31;31;
73973;PMS5003;62336;-26.094;27.994;2023-04-09T00:28:02;27;26;
73973;PMS5003;62336;-26.094;27.994;2023-04-09T00:30:27;30;29;
73973;PMS5003;62336;-26.094;27.994;2023-04-09T00:32:52;25;25;
73973;PMS5003;62336;-26.094;27.994;2023-04-09T00:35:18;32;28;
73973;PMS5003;62336;-26.094;27.994;2023-04-09T00:37:43;29;29;
73973;PMS5003;62336;-26.094;27.994;2023-04-09T00:40:10;30;28;
73973;PMS5003;62336;-26.094;27.994;2023-04-09T00:42:35;28;27;
73973;PMS5003;62336;-26.094;27.994;2023-04-09T00:45:00;30;28;
73973;PMS5003;62336;-26.094;27.994;2023-04-09T00:47:26;30;29;
73973;PMS5003;62336;-26.094;27.994;2023-04-09T00:49:51;26;24;
73973;PMS5003;62336;-26.094;27.994;2023-04-09T00:52:16;28;25;
73973;PMS5003;62336;-26.094;27.994;2023-04-09T00:54:42;27;27;
73973;PMS5003;62336;-26.094;27.994;2023-04-09T00:57:08;30;27;
73973;PMS5003;62336;-26.094;27.994;2023-04-09T00:59:34;31;29;
73973;PMS5003;62336;-26.094;27.994;2023-04-09T01:01:59;23;23;
73973;PMS5003;62336;-26.094;27.994;2023-04-09T01:04:25;27;25;
73973;PMS5003;62336;-26.094;27.994;2023-04-09T01:06:51;31;27;
73973;PMS5003;62336;-26.094;27.994;2023-04-09T01:09:17;27;26;
73973;PMS5003;62336;-26.094;27.994;2023-04-09T01:11:42;31;28;
73973;PMS5003;62336;-26.094;27.994;2023-04-09T01:14:19;27;26;
73973;PMS5003;62336;-26.094;27.994;2023-04-09T01:16:33;28;26;
73973;PMS5003;62336;-26.094;27.994;2023-04-09T01:18:58;27;27;
73973;PMS5003;62336;-26.094;27.994;2023-04-09T01:21:24;32;31;
73973;PMS5003;62336;-26.094;27.994;2023-04-09T01:23:51;27;26;
73973;PMS5003;62336;-26.094;27.994;2023-04-09T01:26:17;27;27;
73973;PMS5003;62336;-26.094;27.994;2023-04-09T01:28:40;23;23;
73973;PMS5003;62336;-26.094;27.994;2023-04-09T01:31:05;31;30;
73973;PMS5003;62336;-26.094;27.994;2023-04-09T01:33:30;34;29;
73973;PMS5003;62336;-26.094;27.994;2023-04-09T01:35:55;23;23;
73973;PMS5003;62336;-26.094;27.994;2023-04-09T01:38:20;28;26;
73973;PMS5003;62336;-26.094;27.994;2023-04-09T01:40:46;29;28;
73973;PMS5003;62336;-26.094;27.994;2023-04-09T01:43:11;30;29;
73973;PMS5003;62336;-26.094;27.994;2023-04-09T01:45:36;26;25;
73973;PMS5003;62336;-26.094;27.994;2023-04-09T01:48:01;27;26;
73973;PMS5003;62336;-26.094;27.994;2023-04-09T01:50:27;26;26;
73973;PMS5003;62336;-26.094;27.994;2023-04-09T01:52:53;24;23;
73973;PMS5003;62336;-26.094;27.994;2023-04-09T01:55:18;30;27;
73973;PMS5003;62336;-26.094;27.994;2023-04-09T01:57:43;25;24;
73973;PMS5003;62336;-26.094;27.994;2023-04-09T02:00:10;30;27;
73973;PMS5003;62336;-26.094;27.994;2023-04-09T02:02:36;29;25;
73973;PMS5003;62336;-26.094;27.994;2023-04-09T02:05:00;28;27;
73973;PMS5003;62336;-26.094;27.994;2023-04-09T02:07:27;26;26;
73973;PMS5003;62336;-26.094;27.994;2023-04-09T02:09:52;24;24;
73973;PMS5003;62336;-26.094;27.994;2023-04-09T02:12:17;26;26;
73973;PMS5003;62336;-26.094;27.994;2023-04-09T02:14:42;27;26;
73973;PMS5003;62336;-26.094;27.994;2023-04-09T02:17:08;27;27;
73973;PMS5003;62336;-26.094;27.994;2023-04-09T02:19:38;30;27;
73973;PMS5003;62336;-26.094;27.994;2023-04-09T02:21:58;25;24;
73973;PMS5003;62336;-26.094;27.994;2023-04-09T02:24:24;27;25;
73973;PMS5003;62336;-26.094;27.994;2023-04-09T02:26:49;27;27;
73973;PMS5003;62336;-26.094;27.994;2023-04-09T02:29:14;27;26;
73973;PMS5003;62336;-26.094;27.994;2023-04-09T02:31:39;30;29;
73973;PMS5003;62336;-26.094;27.994;2023-04-09T02:34:05;26;25;
73973;PMS5003;62336;-26.094;27.994;2023-04-09T02:36:30;29;28;
73973;PMS5003;62336;-26.094;27.994;2023-04-09T02:38:56;29;26;
73973;PMS5003;62336;-26.094;27.994;2023-04-09T02:41:21;28;27;
73973;PMS5003;62336;-26.094;27.994;2023-04-09T02:43:47;28;28;
73973;PMS5003;62336;-26.094;27.994;2023-04-09T02:46:12;25;25;
73973;PMS5003;62336;-26.094;27.994;2023-04-09T02:48:38;31;29;
73973;PMS5003;62336;-26.094;27.994;2023-04-09T02:51:04;30;28;
73973;PMS5003;62336;-26.094;27.994;2023-04-09T02:53:29;27;27;
73973;PMS5003;62336;-26.094;27.994;2023-04-09T02:55:55;30;28;
73973;PMS5003;62336;-26.094;27.994;2023-04-09T02:58:20;30;30;
73973;PMS5003;62336;-26.094;27.994;2023-04-09T03:00:45;32;28;
73973;PMS5003;62336;-26.094;27.994;2023-04-09T03:03:11;34;33;
73973;PMS5003;62336;-26.094;27.994;2023-04-09T03:05:36;30;29;
73973;PMS5003;62336;-26.094;27.994;2023-04-09T03:08:01;30;29;
73973;PMS5003;62336;-26.094;27.994;2023-04-09T03:10:26;29;28;
73973;PMS5003;62336;-26.094;27.994;2023-04-09T03:12:52;35;31;
73973;PMS5003;62336;-26.094;27.994;2023-04-09T03:15:18;29;29;
73973;PMS5003;62336;-26.094;27.994;2023-04-09T03:17:43;31;30;
73973;PMS5003;62336;-26.094;27.994;2023-04-09T03:20:09;33;31;
73973;PMS5003;62336;-26.094;27.994;2023-04-09T03:22:35;30;30;
73973;PMS5003;62336;-26.094;27.994;2023-04-09T03:25:00;31;30;
73973;PMS5003;62336;-26.094;27.994;2023-04-09T03:27:25;30;28;
73973;PMS5003;62336;-26.094;27.994;2023-04-09T03:29:54;29;28;
73973;PMS5003;62336;-26.094;27.994;2023-04-09T03:32:16;30;29;
73973;PMS5003;62336;-26.094;27.994;2023-04-09T03:34:41;30;30;
73973;PMS5003;62336;-26.094;27.994;2023-04-09T03:37:07;29;28;
73973;PMS5003;62336;-26.094;27.994;2023-04-09T03:39:32;27;26;
73973;PMS5003;62336;-26.094;27.994;2023-04-09T03:41:58;27;26;
73973;PMS5003;62336;-26.094;27.994;2023-04-09T03:44:23;32;30;
73973;PMS5003;62336;-26.094;27.994;2023-04-09T03:46:48;30;28;
73973;PMS5003;62336;-26.094;27.994;2023-04-09T03:49:14;35;32;
73973;PMS5003;62336;-26.094;27.994;2023-04-09T03:51:39;30;28;
73973;PMS5003;62336;-26.094;27.994;2023-04-09T03:54:05;34;33;
73973;PMS5003;62336;-26.094;27.994;2023-04-09T03:56:30;31;31;
73973;PMS5003;62336;-26.094;27.994;2023-04-09T03:58:56;31;31;
73973;PMS5003;62336;-26.094;27.994;2023-04-09T04:01:21;35;33;
73973;PMS5003;62336;-26.094;27.994;2023-04-09T04:03:47;34;32;
73973;PMS5003;62336;-26.094;27.994;2023-04-09T04:06:12;34;34;
73973;PMS5003;62336;-26.094;27.994;2023-04-09T04:08:38;34;33;
73973;PMS5003;62336;-26.094;27.994;2023-04-09T04:11:04;32;30;
73973;PMS5003;62336;-26.094;27.994;2023-04-09T04:13:29;33;31;
73973;PMS5003;62336;-26.094;27.994;2023-04-09T04:15:55;35;34;
73973;PMS5003;62336;-26.094;27.994;2023-04-09T04:18:20;37;34;
73973;PMS5003;62336;-26.094;27.994;2023-04-09T04:20:45;32;32;
73973;PMS5003;62336;-26.094;27.994;2023-04-09T04:23:11;30;29;
73973;PMS5003;62336;-26.094;27.994;2023-04-09T04:25:39;29;29;
73973;PMS5003;62336;-26.094;27.994;2023-04-09T04:28:02;32;31;
73973;PMS5003;62336;-26.094;27.994;2023-04-09T04:30:27;35;35;
73973;PMS5003;62336;-26.094;27.994;2023-04-09T04:32:52;40;34;
73973;PMS5003;62336;-26.094;27.994;2023-04-09T04:35:17;36;34;
73973;PMS5003;62336;-26.094;27.994;2023-04-09T04:37:43;31;30;
73973;PMS5003;62336;-26.094;27.994;2023-04-09T04:40:09;30;30;
73973;PMS5003;62336;-26.094;27.994;2023-04-09T04:42:34;34;34;
73973;PMS5003;62336;-26.094;27.994;2023-04-09T04:44:59;38;36;
73973;PMS5003;62336;-26.094;27.994;2023-04-09T04:47:25;30;30;
73973;PMS5003;62336;-26.094;27.994;2023-04-09T04:49:50;33;32;
73973;PMS5003;62336;-26.094;27.994;2023-04-09T04:52:16;30;30;
73973;PMS5003;62336;-26.094;27.994;2023-04-09T04:54:41;33;32;
73973;PMS5003;62336;-26.094;27.994;2023-04-09T04:57:06;34;34;
73973;PMS5003;62336;-26.094;27.994;2023-04-09T04:59:32;33;32;
73973;PMS5003;62336;-26.094;27.994;2023-04-09T05:01:57;33;33;
73973;PMS5003;62336;-26.094;27.994;2023-04-09T05:04:22;35;32;
73973;PMS5003;62336;-26.094;27.994;2023-04-09T05:06:47;31;30;
73973;PMS5003;62336;-26.094;27.994;2023-04-09T05:09:13;30;29;
73973;PMS5003;62336;-26.094;27.994;2023-04-09T05:11:38;36;35;
73973;PMS5003;62336;-26.094;27.994;2023-04-09T05:14:04;39;36;
73973;PMS5003;62336;-26.094;27.994;2023-04-09T05:16:30;34;32;
73973;PMS5003;62336;-26.094;27.994;2023-04-09T05:18:55;34;33;
73973;PMS5003;62336;-26.094;27.994;2023-04-09T05:21:21;35;33;
73973;PMS5003;62336;-26.094;27.994;2023-04-09T05:23:46;35;33;
73973;PMS5003;62336;-26.094;27.994;2023-04-09T05:26:11;38;35;
73973;PMS5003;62336;-26.094;27.994;2023-04-09T05:28:37;30;30;
73973;PMS5003;62336;-26.094;27.994;2023-04-09T05:31:02;33;33;
73973;PMS5003;62336;-26.094;27.994;2023-04-09T05:33:27;38;37;
73973;PMS5003;62336;-26.094;27.994;2023-04-09T05:35:52;38;36;
73973;PMS5003;62336;-26.094;27.994;2023-04-09T05:38:18;39;38;
73973;PMS5003;62336;-26.094;27.994;2023-04-09T05:40:43;39;37;
73973;PMS5003;62336;-26.094;27.994;2023-04-09T05:43:09;35;34;
73973;PMS5003;62336;-26.094;27.994;2023-04-09T05:45:34;32;32;
73973;PMS5003;62336;-26.094;27.994;2023-04-09T05:47:59;43;41;
73973;PMS5003;62336;-26.094;27.994;2023-04-09T05:50:24;32;31;
73973;PMS5003;62336;-26.094;27.994;2023-04-09T05:52:49;36;35;
73973;PMS5003;62336;-26.094;27.994;2023-04-09T05:55:15;36;35;
73973;PMS5003;62336;-26.094;27.994;2023-04-09T05:57:40;34;33;
73973;PMS5003;62336;-26.094;27.994;2023-04-09T06:00:06;33;33;
73973;PMS5003;62336;-26.094;27.994;2023-04-09T06:02:30;37;34;
73973;PMS5003;62336;-26.094;27.994;2023-04-09T06:04:56;38;36;
73973;PMS5003;62336;-26.094;27.994;2023-04-09T06:07:22;34;32;
73973;PMS5003;62336;-26.094;27.994;2023-04-09T06:09:47;38;35;
73973;PMS5003;62336;-26.094;27.994;2023-04-09T06:12:13;37;37;
73973;PMS5003;62336;-26.094;27.994;2023-04-09T06:14:38;40;38;
73973;PMS5003;62336;-26.094;27.994;2023-04-09T06:17:04;37;34;
73973;PMS5003;62336;-26.094;27.994;2023-04-09T06:19:29;36;33;
73973;PMS5003;62336;-26.094;27.994;2023-04-09T06:21:55;44;39;
73973;PMS5003;62336;-26.094;27.994;2023-04-09T06:24:21;37;37;
73973;PMS5003;62336;-26.094;27.994;2023-04-09T06:26:46;34;32;
73973;PMS5003;62336;-26.094;27.994;2023-04-09T06:29:12;36;35;
73973;PMS5003;62336;-26.094;27.994;2023-04-09T06:31:37;38;37;
73973;PMS5003;62336;-26.094;27.994;2023-04-09T06:34:03;35;33;
73973;PMS5003;62336;-26.094;27.994;2023-04-09T06:36:28;36;35;
73973;PMS5003;62336;-26.094;27.994;2023-04-09T06:38:53;31;30;
73973;PMS5003;62336;-26.094;27.994;2023-04-09T06:41:19;37;36;
73973;PMS5003;62336;-26.094;27.994;2023-04-09T06:43:43;33;32;
73973;PMS5003;62336;-26.094;27.994;2023-04-09T06:46:09;35;32;
73973;PMS5003;62336;-26.094;27.994;2023-04-09T06:48:34;31;30;
73973;PMS5003;62336;-26.094;27.994;2023-04-09T06:51:00;32;30;
73973;PMS5003;62336;-26.094;27.994;2023-04-09T06:53:25;36;34;
73973;PMS5003;62336;-26.094;27.994;2023-04-09T06:55:50;35;35;
73973;PMS5003;62336;-26.094;27.994;2023-04-09T06:58:15;39;38;
73973;PMS5003;62336;-26.094;27.994;2023-04-09T07:00:40;33;33;
73973;PMS5003;62336;-26.094;27.994;2023-04-09T07:03:06;29;29;
73973;PMS5003;62336;-26.094;27.994;2023-04-09T07:05:32;37;35;
73973;PMS5003;62336;-26.094;27.994;2023-04-09T07:07:57;34;32;
73973;PMS5003;62336;-26.094;27.994;2023-04-09T07:10:22;30;30;
73973;PMS5003;62336;-26.094;27.994;2023-04-09T07:12:47;30;29;
73973;PMS5003;62336;-26.094;27.994;2023-04-09T07:15:12;33;32;
73973;PMS5003;62336;-26.094;27.994;2023-04-09T07:17:37;32;31;
73973;PMS5003;62336;-26.094;27.994;2023-04-09T07:20:04;35;34;
73973;PMS5003;62336;-26.094;27.994;2023-04-09T07:22:29;32;32;
73973;PMS5003;62336;-26.094;27.994;2023-04-09T07:24:54;32;31;
73973;PMS5003;62336;-26.094;27.994;2023-04-09T07:27:19;36;34;
73973;PMS5003;62336;-26.094;27.994;2023-04-09T07:29:45;30;30;
73973;PMS5003;62336;-26.094;27.994;2023-04-09T07:32:11;29;29;
73973;PMS5003;62336;-26.094;27.994;2023-04-09T07:34:36;30;28;
73973;PMS5003;62336;-26.094;27.994;2023-04-09T07:37:01;33;32;
73973;PMS5003;62336;-26.094;27.994;2023-04-09T07:39:27;30;29;
73973;PMS5003;62336;-26.094;27.994;2023-04-09T07:41:53;27;26;
73973;PMS5003;62336;-26.094;27.994;2023-04-09T07:44:19;33;31;
73973;PMS5003;62336;-26.094;27.994;2023-04-09T07:46:44;32;32;
73973;PMS5003;62336;-26.094;27.994;2023-04-09T07:49:09;31;31;
73973;PMS5003;62336;-26.094;27.994;2023-04-09T07:51:34;28;28;
73973;PMS5003;62336;-26.094;27.994;2023-04-09T07:54:00;31;29;
73973;PMS5003;62336;-26.094;27.994;2023-04-09T07:56:25;29;25;
73973;PMS5003;62336;-26.094;27.994;2023-04-09T07:58:51;26;26;
73973;PMS5003;62336;-26.094;27.994;2023-04-09T08:01:16;27;27;
73973;PMS5003;62336;-26.094;27.994;2023-04-09T08:03:41;29;28;
73973;PMS5003;62336;-26.094;27.994;2023-04-09T08:06:07;29;29;
73973;PMS5003;62336;-26.094;27.994;2023-04-09T08:08:32;30;29;
73973;PMS5003;62336;-26.094;27.994;2023-04-09T08:10:57;31;31;
73973;PMS5003;62336;-26.094;27.994;2023-04-09T08:13:23;31;29;
73973;PMS5003;62336;-26.094;27.994;2023-04-09T08:15:48;28;27;
73973;PMS5003;62336;-26.094;27.994;2023-04-09T08:18:14;26;26;
73973;PMS5003;62336;-26.094;27.994;2023-04-09T08:20:39;29;29;
73973;PMS5003;62336;-26.094;27.994;2023-04-09T08:23:04;27;27;
73973;PMS5003;62336;-26.094;27.994;2023-04-09T08:25:29;29;26;
73973;PMS5003;62336;-26.094;27.994;2023-04-09T08:27:54;28;26;
73973;PMS5003;62336;-26.094;27.994;2023-04-09T08:30:20;30;27;
73973;PMS5003;62336;-26.094;27.994;2023-04-09T08:32:45;27;27;
73973;PMS5003;62336;-26.094;27.994;2023-04-09T08:35:10;27;26;
73973;PMS5003;62336;-26.094;27.994;2023-04-09T08:37:35;33;30;
73973;PMS5003;62336;-26.094;27.994;2023-04-09T08:40:01;27;25;
73973;PMS5003;62336;-26.094;27.994;2023-04-09T08:42:26;22;22;
73973;PMS5003;62336;-26.094;27.994;2023-04-09T08:44:52;27;26;
73973;PMS5003;62336;-26.094;27.994;2023-04-09T08:47:17;25;25;
73973;PMS5003;62336;-26.094;27.994;2023-04-09T08:49:42;26;25;
73973;PMS5003;62336;-26.094;27.994;2023-04-09T08:52:08;26;26;
73973;PMS5003;62336;-26.094;27.994;2023-04-09T08:54:33;30;28;
73973;PMS5003;62336;-26.094;27.994;2023-04-09T08:56:59;26;26;
73973;PMS5003;62336;-26.094;27.994;2023-04-09T08:59:24;31;31;
73973;PMS5003;62336;-26.094;27.994;2023-04-09T09:04:16;26;26;
73973;PMS5003;62336;-26.094;27.994;2023-04-09T09:06:42;25;25;
73973;PMS5003;62336;-26.094;27.994;2023-04-09T09:09:07;26;26;
73973;PMS5003;62336;-26.094;27.994;2023-04-09T09:11:32;27;27;
73973;PMS5003;62336;-26.094;27.994;2023-04-09T09:13:58;25;23;
73973;PMS5003;62336;-26.094;27.994;2023-04-09T09:16:22;24;24;
73973;PMS5003;62336;-26.094;27.994;2023-04-09T09:18:48;23;23;
73973;PMS5003;62336;-26.094;27.994;2023-04-09T09:21:14;26;26;
73973;PMS5003;62336;-26.094;27.994;2023-04-09T09:23:39;24;24;
73973;PMS5003;62336;-26.094;27.994;2023-04-09T09:28:33;30;29;
73973;PMS5003;62336;-26.094;27.994;2023-04-09T09:31:00;28;27;
73973;PMS5003;62336;-26.094;27.994;2023-04-09T09:33:21;28;27;
73973;PMS5003;62336;-26.094;27.994;2023-04-09T09:35:47;30;30;
73973;PMS5003;62336;-26.094;27.994;2023-04-09T09:38:11;30;30;
73973;PMS5003;62336;-26.094;27.994;2023-04-09T09:40:37;28;28;
73973;PMS5003;62336;-26.094;27.994;2023-04-09T09:43:02;29;29;
73973;PMS5003;62336;-26.094;27.994;2023-04-09T09:45:27;25;25;
73973;PMS5003;62336;-26.094;27.994;2023-04-09T09:47:53;27;26;
73973;PMS5003;62336;-26.094;27.994;2023-04-09T09:50:18;24;23;
73973;PMS5003;62336;-26.094;27.994;2023-04-09T09:52:44;27;27;
73973;PMS5003;62336;-26.094;27.994;2023-04-09T09:55:09;28;28;
73973;PMS5003;62336;-26.094;27.994;2023-04-09T09:57:34;26;25;
73973;PMS5003;62336;-26.094;27.994;2023-04-09T10:00:00;28;27;
73973;PMS5003;62336;-26.094;27.994;2023-04-09T10:02:25;30;28;
73973;PMS5003;62336;-26.094;27.994;2023-04-09T10:04:50;26;25;
73973;PMS5003;62336;-26.094;27.994;2023-04-09T10:07:16;26;25;
73973;PMS5003;62336;-26.094;27.994;2023-04-09T10:09:46;23;22;
73973;PMS5003;62336;-26.094;27.994;2023-04-09T10:12:08;23;23;
73973;PMS5003;62336;-26.094;27.994;2023-04-09T10:14:32;25;24;
73973;PMS5003;62336;-26.094;27.994;2023-04-09T10:16:57;21;21;
73973;PMS5003;62336;-26.094;27.994;2023-04-09T10:19:23;23;22;
73973;PMS5003;62336;-26.094;27.994;2023-04-09T10:21:50;26;25;
73973;PMS5003;62336;-26.094;27.994;2023-04-09T10:24:14;23;23;
73973;PMS5003;62336;-26.094;27.994;2023-04-09T10:26:40;25;24;
73973;PMS5003;62336;-26.094;27.994;2023-04-09T10:29:05;22;22;
73973;PMS5003;62336;-26.094;27.994;2023-04-09T10:33:55;20;20;
73973;PMS5003;62336;-26.094;27.994;2023-04-09T10:36:20;25;25;
73973;PMS5003;62336;-26.094;27.994;2023-04-09T10:38:45;25;23;
73973;PMS5003;62336;-26.094;27.994;2023-04-09T10:41:12;23;23;
73973;PMS5003;62336;-26.094;27.994;2023-04-09T10:43:35;23;22;
73973;PMS5003;62336;-26.094;27.994;2023-04-09T10:46:00;24;23;
73973;PMS5003;62336;-26.094;27.994;2023-04-09T10:48:25;26;25;
73973;PMS5003;62336;-26.094;27.994;2023-04-09T10:50:51;24;24;
73973;PMS5003;62336;-26.094;27.994;2023-04-09T10:53:21;22;22;
73973;PMS5003;62336;-26.094;27.994;2023-04-09T10:55:42;25;24;
73973;PMS5003;62336;-26.094;27.994;2023-04-09T10:58:07;21;20;
73973;PMS5003;62336;-26.094;27.994;2023-04-09T11:00:32;21;21;
73973;PMS5003;62336;-26.094;27.994;2023-04-09T11:03:03;24;22;
73973;PMS5003;62336;-26.094;27.994;2023-04-09T11:05:24;21;21;
73973;PMS5003;62336;-26.094;27.994;2023-04-09T11:07:48;20;20;
73973;PMS5003;62336;-26.094;27.994;2023-04-09T11:10:12;21;21;
73973;PMS5003;62336;-26.094;27.994;2023-04-09T11:12:38;18;18;
73973;PMS5003;62336;-26.094;27.994;2023-04-09T11:15:04;21;21;
73973;PMS5003;62336;-26.094;27.994;2023-04-09T11:17:28;17;17;
73973;PMS5003;62336;-26.094;27.994;2023-04-09T11:19:54;20;19;
73973;PMS5003;62336;-26.094;27.994;2023-04-09T11:22:19;21;20;
73973;PMS5003;62336;-26.094;27.994;2023-04-09T11:24:44;27;23;
73973;PMS5003;62336;-26.094;27.994;2023-04-09T11:27:10;28;25;
73973;PMS5003;62336;-26.094;27.994;2023-04-09T11:29:35;20;19;
73973;PMS5003;62336;-26.094;27.994;2023-04-09T11:32:00;20;19;
73973;PMS5003;62336;-26.094;27.994;2023-04-09T11:34:26;20;20;
73973;PMS5003;62336;-26.094;27.994;2023-04-09T11:36:50;24;22;
73973;PMS5003;62336;-26.094;27.994;2023-04-09T11:39:15;25;24;
73973;PMS5003;62336;-26.094;27.994;2023-04-09T11:41:41;28;27;
73973;PMS5003;62336;-26.094;27.994;2023-04-09T11:44:06;22;22;
73973;PMS5003;62336;-26.094;27.994;2023-04-09T11:46:31;25;24;
73973;PMS5003;62336;-26.094;27.994;2023-04-09T11:48:56;23;23;
73973;PMS5003;62336;-26.094;27.994;2023-04-09T11:51:22;26;25;
73973;PMS5003;62336;-26.094;27.994;2023-04-09T11:53:48;29;28;
73973;PMS5003;62336;-26.094;27.994;2023-04-09T11:56:13;33;31;
73973;PMS5003;62336;-26.094;27.994;2023-04-09T11:58:43;24;24;
73973;PMS5003;62336;-26.094;27.994;2023-04-09T12:01:03;23;21;
73973;PMS5003;62336;-26.094;27.994;2023-04-09T12:03:28;23;23;
73973;PMS5003;62336;-26.094;27.994;2023-04-09T12:05:53;22;21;
73973;PMS5003;62336;-26.094;27.994;2023-04-09T12:08:21;20;20;
73973;PMS5003;62336;-26.094;27.994;2023-04-09T12:10:44;23;23;
73973;PMS5003;62336;-26.094;27.994;2023-04-09T12:13:10;19;19;
73973;PMS5003;62336;-26.094;27.994;2023-04-09T12:15:35;20;19;
73973;PMS5003;62336;-26.094;27.994;2023-04-09T12:18:01;20;20;
73973;PMS5003;62336;-26.094;27.994;2023-04-09T12:20:28;21;21;
73973;PMS5003;62336;-26.094;27.994;2023-04-09T12:22:51;24;22;
73973;PMS5003;62336;-26.094;27.994;2023-04-09T12:25:16;20;19;
73973;PMS5003;62336;-26.094;27.994;2023-04-09T12:27:41;17;16;
73973;PMS5003;62336;-26.094;27.994;2023-04-09T12:30:07;25;23;
73973;PMS5003;62336;-26.094;27.994;2023-04-09T12:32:31;21;21;
73973;PMS5003;62336;-26.094;27.994;2023-04-09T12:34:57;24;23;
73973;PMS5003;62336;-26.094;27.994;2023-04-09T12:37:23;25;24;
73973;PMS5003;62336;-26.094;27.994;2023-04-09T12:39:48;23;22;
73973;PMS5003;62336;-26.094;27.994;2023-04-09T12:42:14;21;21;
73973;PMS5003;62336;-26.094;27.994;2023-04-09T12:44:39;28;27;
73973;PMS5003;62336;-26.094;27.994;2023-04-09T12:47:04;27;24;
73973;PMS5003;62336;-26.094;27.994;2023-04-09T12:49:29;22;22;
73973;PMS5003;62336;-26.094;27.994;2023-04-09T12:51:54;23;23;
73973;PMS5003;62336;-26.094;27.994;2023-04-09T12:54:19;24;23;
73973;PMS5003;62336;-26.094;27.994;2023-04-09T12:56:45;24;24;
73973;PMS5003;62336;-26.094;27.994;2023-04-09T12:59:11;25;25;
73973;PMS5003;62336;-26.094;27.994;2023-04-09T13:01:36;23;22;
73973;PMS5003;62336;-26.094;27.994;2023-04-09T13:04:01;24;24;
73973;PMS5003;62336;-26.094;27.994;2023-04-09T13:06:27;28;28;
73973;PMS5003;62336;-26.094;27.994;2023-04-09T13:08:52;27;26;
73973;PMS5003;62336;-26.094;27.994;2023-04-09T13:11:18;23;22;
73973;PMS5003;62336;-26.094;27.994;2023-04-09T13:13:43;27;25;
73973;PMS5003;62336;-26.094;27.994;2023-04-09T13:16:09;22;22;
73973;PMS5003;62336;-26.094;27.994;2023-04-09T13:18:33;21;20;
73973;PMS5003;62336;-26.094;27.994;2023-04-09T13:20:59;38;35;
73973;PMS5003;62336;-26.094;27.994;2023-04-09T13:23:24;25;24;
73973;PMS5003;62336;-26.094;27.994;2023-04-09T13:25:49;25;25;
73973;PMS5003;62336;-26.094;27.994;2023-04-09T13:28:14;24;24;
73973;PMS5003;62336;-26.094;27.994;2023-04-09T13:30:40;21;21;
73973;PMS5003;62336;-26.094;27.994;2023-04-09T13:33:05;23;23;
73973;PMS5003;62336;-26.094;27.994;2023-04-09T13:35:30;24;23;
73973;PMS5003;62336;-26.094;27.994;2023-04-09T13:37:56;21;21;
73973;PMS5003;62336;-26.094;27.994;2023-04-09T13:40:22;20;20;
73973;PMS5003;62336;-26.094;27.994;2023-04-09T13:42:47;23;23;
73973;PMS5003;62336;-26.094;27.994;2023-04-09T13:45:12;21;21;
73973;PMS5003;62336;-26.094;27.994;2023-04-09T13:47:37;23;22;
73973;PMS5003;62336;-26.094;27.994;2023-04-09T13:50:02;20;19;
73973;PMS5003;62336;-26.094;27.994;2023-04-09T13:52:28;21;20;
73973;PMS5003;62336;-26.094;27.994;2023-04-09T13:54:52;22;21;
73973;PMS5003;62336;-26.094;27.994;2023-04-09T13:57:18;23;22;
73973;PMS5003;62336;-26.094;27.994;2023-04-09T13:59:43;21;20;
73973;PMS5003;62336;-26.094;27.994;2023-04-09T14:02:08;23;22;
73973;PMS5003;62336;-26.094;27.994;2023-04-09T14:04:33;22;22;
73973;PMS5003;62336;-26.094;27.994;2023-04-09T14:06:59;25;23;
73973;PMS5003;62336;-26.094;27.994;2023-04-09T14:09:24;43;36;
73973;PMS5003;62336;-26.094;27.994;2023-04-09T14:11:50;30;30;
73973;PMS5003;62336;-26.094;27.994;2023-04-09T14:14:16;29;28;
73973;PMS5003;62336;-26.094;27.994;2023-04-09T14:16:41;27;27;
73973;PMS5003;62336;-26.094;27.994;2023-04-09T14:19:06;54;49;
73973;PMS5003;62336;-26.094;27.994;2023-04-09T14:21:31;24;22;
73973;PMS5003;62336;-26.094;27.994;2023-04-09T14:23:56;30;29;
73973;PMS5003;62336;-26.094;27.994;2023-04-09T14:26:21;35;35;
73973;PMS5003;62336;-26.094;27.994;2023-04-09T14:28:47;41;39;
73973;PMS5003;62336;-26.094;27.994;2023-04-09T14:31:12;32;30;
73973;PMS5003;62336;-26.094;27.994;2023-04-09T14:33:38;62;60;
73973;PMS5003;62336;-26.094;27.994;2023-04-09T14:36:04;22;22;
73973;PMS5003;62336;-26.094;27.994;2023-04-09T14:38:29;27;25;
73973;PMS5003;62336;-26.094;27.994;2023-04-09T14:40:55;34;34;
73973;PMS5003;62336;-26.094;27.994;2023-04-09T14:43:20;24;23;
73973;PMS5003;62336;-26.094;27.994;2023-04-09T14:45:45;24;23;
73973;PMS5003;62336;-26.094;27.994;2023-04-09T14:48:11;28;26;
73973;PMS5003;62336;-26.094;27.994;2023-04-09T14:50:36;24;23;
73973;PMS5003;62336;-26.094;27.994;2023-04-09T14:53:01;23;22;
73973;PMS5003;62336;-26.094;27.994;2023-04-09T14:55:26;23;23;
73973;PMS5003;62336;-26.094;27.994;2023-04-09T14:57:52;22;22;
73973;PMS5003;62336;-26.094;27.994;2023-04-09T15:00:17;25;24;
73973;PMS5003;62336;-26.094;27.994;2023-04-09T15:02:42;25;25;
73973;PMS5003;62336;-26.094;27.994;2023-04-09T15:05:08;25;24;
73973;PMS5003;62336;-26.094;27.994;2023-04-09T15:07:33;25;24;
73973;PMS5003;62336;-26.094;27.994;2023-04-09T15:09:59;21;21;
73973;PMS5003;62336;-26.094;27.994;2023-04-09T15:12:24;19;19;
73973;PMS5003;62336;-26.094;27.994;2023-04-09T15:14:49;22;22;
73973;PMS5003;62336;-26.094;27.994;2023-04-09T15:17:14;19;19;
73973;PMS5003;62336;-26.094;27.994;2023-04-09T15:19:39;22;21;
73973;PMS5003;62336;-26.094;27.994;2023-04-09T15:22:04;23;22;
73973;PMS5003;62336;-26.094;27.994;2023-04-09T15:24:30;19;19;
73973;PMS5003;62336;-26.094;27.994;2023-04-09T15:26:55;23;22;
73973;PMS5003;62336;-26.094;27.994;2023-04-09T15:29:20;20;19;
73973;PMS5003;62336;-26.094;27.994;2023-04-09T15:31:45;21;21;
73973;PMS5003;62336;-26.094;27.994;2023-04-09T15:34:10;23;23;
73973;PMS5003;62336;-26.094;27.994;2023-04-09T15:36:35;24;24;
73973;PMS5003;62336;-26.094;27.994;2023-04-09T15:39:01;21;21;
73973;PMS5003;62336;-26.094;27.994;2023-04-09T15:41:25;24;24;